sensor_id;sensor_type;location;lat;lon;timestamp;temperature;humidity
19017;DHT22;9641;51.494;6.670;2023-06-26T00:01:28;24.60;1.00
19017;DHT22;9641;51.494;6.670;2023-06-26T00:03:58;24.60;99.90
19017;DHT22;9641;51.494;6.670;2023-06-26T00:06:25;24.70;99.90
19017;DHT22;9641;51.494;6.670;2023-06-26T00:08:52;24.70;99.90
19017;DHT22;9641;51.494;6.670;2023-06-26T00:11:19;24.70;99.90
19017;DHT22;9641;51.494;6.670;2023-06-26T00:13:46;24.80;99.90
19017;DHT22;9641;51.494;6.670;2023-06-26T00:16:13;24.80;1.00
19017;DHT22;9641;51.494;6.670;2023-06-26T00:18:40;24.80;1.00
19017;DHT22;9641;51.494;6.670;2023-06-26T00:21:08;24.80;99.90
19017;DHT22;9641;51.494;6.670;2023-06-26T00:23:35;24.70;1.00
19017;DHT22;9641;51.494;6.670;2023-06-26T00:26:03;24.70;3.80
19017;DHT22;9641;51.494;6.670;2023-06-26T00:28:30;24.70;1.00
19017;DHT22;9641;51.494;6.670;2023-06-26T00:30:57;24.70;1.00
19017;DHT22;9641;51.494;6.670;2023-06-26T00:33:24;24.70;99.90
19017;DHT22;9641;51.494;6.670;2023-06-26T00:35:51;24.70;99.90
19017;DHT22;9641;51.494;6.670;2023-06-26T00:38:19;24.70;99.90
19017;DHT22;9641;51.494;6.670;2023-06-26T00:40:46;24.60;99.90
19017;DHT22;9641;51.494;6.670;2023-06-26T00:43:13;24.60;99.90
19017;DHT22;9641;51.494;6.670;2023-06-26T00:45:41;24.50;1.00
19017;DHT22;9641;51.494;6.670;2023-06-26T00:48:09;24.50;99.90
19017;DHT22;9641;51.494;6.670;2023-06-26T00:50:38;24.40;99.90
19017;DHT22;9641;51.494;6.670;2023-06-26T00:53:05;24.30;99.90
19017;DHT22;9641;51.494;6.670;2023-06-26T00:55:33;24.30;99.90
19017;DHT22;9641;51.494;6.670;2023-06-26T00:58:01;24.30;1.00
19017;DHT22;9641;51.494;6.670;2023-06-26T01:00:28;24.40;1.00
19017;DHT22;9641;51.494;6.670;2023-06-26T01:02:57;24.30;99.90
19017;DHT22;9641;51.494;6.670;2023-06-26T01:05:26;24.30;1.00
19017;DHT22;9641;51.494;6.670;2023-06-26T01:07:54;24.30;1.00
19017;DHT22;9641;51.494;6.670;2023-06-26T01:10:21;24.30;1.00
19017;DHT22;9641;51.494;6.670;2023-06-26T01:12:50;24.30;63.00
19017;DHT22;9641;51.494;6.670;2023-06-26T01:15:17;24.20;99.90
19017;DHT22;9641;51.494;6.670;2023-06-26T01:17:44;24.10;1.00
19017;DHT22;9641;51.494;6.670;2023-06-26T01:20:13;24.00;99.90
19017;DHT22;9641;51.494;6.670;2023-06-26T01:22:47;24.00;99.90
19017;DHT22;9641;51.494;6.670;2023-06-26T01:25:21;23.90;99.90
19017;DHT22;9641;51.494;6.670;2023-06-26T01:27:52;23.80;1.00
19017;DHT22;9641;51.494;6.670;2023-06-26T01:30:21;23.90;99.90
19017;DHT22;9641;51.494;6.670;2023-06-26T01:32:49;23.90;1.00
19017;DHT22;9641;51.494;6.670;2023-06-26T01:35:16;23.90;99.90
19017;DHT22;9641;51.494;6.670;2023-06-26T01:37:43;23.90;1.00
19017;DHT22;9641;51.494;6.670;2023-06-26T01:40:10;23.90;1.00
19017;DHT22;9641;51.494;6.670;2023-06-26T01:42:39;23.90;1.00
19017;DHT22;9641;51.494;6.670;2023-06-26T01:45:13;23.90;1.00
19017;DHT22;9641;51.494;6.670;2023-06-26T01:47:44;23.90;99.90
19017;DHT22;9641;51.494;6.670;2023-06-26T01:50:18;23.90;1.00
19017;DHT22;9641;51.494;6.670;2023-06-26T01:52:54;24.00;99.90
19017;DHT22;9641;51.494;6.670;2023-06-26T01:55:28;23.90;99.90
19017;DHT22;9641;51.494;6.670;2023-06-26T01:58:01;23.90;99.90
19017;DHT22;9641;51.494;6.670;2023-06-26T02:00:31;23.90;56.70
19017;DHT22;9641;51.494;6.670;2023-06-26T02:02:59;23.80;33.60
19017;DHT22;9641;51.494;6.670;2023-06-26T02:05:25;23.80;99.90
19017;DHT22;9641;51.494;6.670;2023-06-26T02:07:52;23.70;99.90
19017;DHT22;9641;51.494;6.670;2023-06-26T02:10:19;23.70;99.90
19017;DHT22;9641;51.494;6.670;2023-06-26T02:12:46;23.70;99.90
19017;DHT22;9641;51.494;6.670;2023-06-26T02:15:14;23.70;1.00
19017;DHT22;9641;51.494;6.670;2023-06-26T02:17:42;23.70;1.00
19017;DHT22;9641;51.494;6.670;2023-06-26T02:20:09;23.60;1.00
19017;DHT22;9641;51.494;6.670;2023-06-26T02:22:36;23.50;99.90
19017;DHT22;9641;51.494;6.670;2023-06-26T02:25:04;23.50;99.90
19017;DHT22;9641;51.494;6.670;2023-06-26T02:27:32;23.40;1.00
19017;DHT22;9641;51.494;6.670;2023-06-26T02:29:59;23.30;99.90
19017;DHT22;9641;51.494;6.670;2023-06-26T02:32:25;23.20;1.00
19017;DHT22;9641;51.494;6.670;2023-06-26T02:34:53;23.00;99.90
19017;DHT22;9641;51.494;6.670;2023-06-26T02:37:20;23.00;99.90
19017;DHT22;9641;51.494;6.670;2023-06-26T02:39:47;23.00;99.90
19017;DHT22;9641;51.494;6.670;2023-06-26T02:42:14;22.90;1.00
19017;DHT22;9641;51.494;6.670;2023-06-26T02:44:41;22.90;1.00
19017;DHT22;9641;51.494;6.670;2023-06-26T02:47:08;23.00;99.90
19017;DHT22;9641;51.494;6.670;2023-06-26T02:49:39;23.10;43.10
19017;DHT22;9641;51.494;6.670;2023-06-26T02:52:07;23.10;1.00
19017;DHT22;9641;51.494;6.670;2023-06-26T02:54:34;23.10;11.90
19017;DHT22;9641;51.494;6.670;2023-06-26T02:57:04;23.10;1.00
19017;DHT22;9641;51.494;6.670;2023-06-26T02:59:32;23.00;1.00
19017;DHT22;9641;51.494;6.670;2023-06-26T03:01:59;23.00;1.00
19017;DHT22;9641;51.494;6.670;2023-06-26T03:04:31;23.00;1.00
19017;DHT22;9641;51.494;6.670;2023-06-26T03:07:04;23.00;76.40
19017;DHT22;9641;51.494;6.670;2023-06-26T03:09:32;22.90;99.90
19017;DHT22;9641;51.494;6.670;2023-06-26T03:11:59;22.90;1.00
19017;DHT22;9641;51.494;6.670;2023-06-26T03:14:26;22.90;99.90
19017;DHT22;9641;51.494;6.670;2023-06-26T03:16:54;22.90;1.00
19017;DHT22;9641;51.494;6.670;2023-06-26T03:19:25;22.80;1.00
19017;DHT22;9641;51.494;6.670;2023-06-26T03:22:24;22.80;1.00
19017;DHT22;9641;51.494;6.670;2023-06-26T03:24:52;22.70;1.00
19017;DHT22;9641;51.494;6.670;2023-06-26T03:27:19;22.60;1.00
19017;DHT22;9641;51.494;6.670;2023-06-26T03:29:47;22.50;99.90
19017;DHT22;9641;51.494;6.670;2023-06-26T03:32:15;22.40;1.00
19017;DHT22;9641;51.494;6.670;2023-06-26T03:34:42;22.40;1.00
19017;DHT22;9641;51.494;6.670;2023-06-26T03:37:08;22.40;1.00
19017;DHT22;9641;51.494;6.670;2023-06-26T03:39:35;22.30;1.00
19017;DHT22;9641;51.494;6.670;2023-06-26T03:42:04;22.30;1.00
19017;DHT22;9641;51.494;6.670;2023-06-26T03:44:31;22.30;99.90
19017;DHT22;9641;51.494;6.670;2023-06-26T03:46:59;22.30;1.00
19017;DHT22;9641;51.494;6.670;2023-06-26T03:49:25;22.30;1.00
19017;DHT22;9641;51.494;6.670;2023-06-26T03:51:53;22.20;99.90
19017;DHT22;9641;51.494;6.670;2023-06-26T03:54:21;22.20;99.90
19017;DHT22;9641;51.494;6.670;2023-06-26T03:56:48;22.20;99.90
19017;DHT22;9641;51.494;6.670;2023-06-26T03:59:16;22.20;1.00
19017;DHT22;9641;51.494;6.670;2023-06-26T04:01:43;22.20;1.00
19017;DHT22;9641;51.494;6.670;2023-06-26T04:04:10;22.30;99.90
19017;DHT22;9641;51.494;6.670;2023-06-26T04:06:36;22.30;99.90
19017;DHT22;9641;51.494;6.670;2023-06-26T04:09:03;22.30;1.00
19017;DHT22;9641;51.494;6.670;2023-06-26T04:11:30;22.40;1.00
19017;DHT22;9641;51.494;6.670;2023-06-26T04:13:57;22.40;99.90
19017;DHT22;9641;51.494;6.670;2023-06-26T04:16:25;22.40;99.90
19017;DHT22;9641;51.494;6.670;2023-06-26T04:18:52;22.40;1.00
19017;DHT22;9641;51.494;6.670;2023-06-26T04:21:21;22.40;59.80
19017;DHT22;9641;51.494;6.670;2023-06-26T04:23:50;22.30;99.90
19017;DHT22;9641;51.494;6.670;2023-06-26T04:26:17;22.20;1.00
19017;DHT22;9641;51.494;6.670;2023-06-26T04:28:44;22.20;1.00
19017;DHT22;9641;51.494;6.670;2023-06-26T04:31:10;22.10;1.00
19017;DHT22;9641;51.494;6.670;2023-06-26T04:33:39;22.10;1.00
19017;DHT22;9641;51.494;6.670;2023-06-26T04:36:06;22.10;99.90
19017;DHT22;9641;51.494;6.670;2023-06-26T04:38:33;22.10;1.00
19017;DHT22;9641;51.494;6.670;2023-06-26T04:41:00;22.10;99.90
19017;DHT22;9641;51.494;6.670;2023-06-26T04:43:28;22.20;30.80
19017;DHT22;9641;51.494;6.670;2023-06-26T04:45:54;22.20;4.20
19017;DHT22;9641;51.494;6.670;2023-06-26T04:48:21;22.20;99.90
19017;DHT22;9641;51.494;6.670;2023-06-26T04:50:49;22.10;1.00
19017;DHT22;9641;51.494;6.670;2023-06-26T04:53:19;22.10;99.90
19017;DHT22;9641;51.494;6.670;2023-06-26T04:55:46;22.10;1.00
19017;DHT22;9641;51.494;6.670;2023-06-26T04:58:13;22.10;99.90
19017;DHT22;9641;51.494;6.670;2023-06-26T05:00:40;22.10;15.70
19017;DHT22;9641;51.494;6.670;2023-06-26T05:03:08;22.10;99.90
19017;DHT22;9641;51.494;6.670;2023-06-26T05:05:35;22.10;99.90
19017;DHT22;9641;51.494;6.670;2023-06-26T05:08:15;22.10;99.90
19017;DHT22;9641;51.494;6.670;2023-06-26T05:10:42;22.10;1.00
19017;DHT22;9641;51.494;6.670;2023-06-26T05:13:09;22.10;1.00
19017;DHT22;9641;51.494;6.670;2023-06-26T05:15:36;22.10;99.90
19017;DHT22;9641;51.494;6.670;2023-06-26T05:18:03;22.00;1.00
19017;DHT22;9641;51.494;6.670;2023-06-26T05:20:29;22.00;1.00
19017;DHT22;9641;51.494;6.670;2023-06-26T05:22:57;22.10;1.00
19017;DHT22;9641;51.494;6.670;2023-06-26T05:25:26;22.10;1.00
19017;DHT22;9641;51.494;6.670;2023-06-26T05:27:55;22.20;1.00
19017;DHT22;9641;51.494;6.670;2023-06-26T05:30:22;22.30;1.00
19017;DHT22;9641;51.494;6.670;2023-06-26T05:32:51;22.30;99.90
19017;DHT22;9641;51.494;6.670;2023-06-26T05:35:18;22.30;99.90
19017;DHT22;9641;51.494;6.670;2023-06-26T05:37:48;22.20;1.00
19017;DHT22;9641;51.494;6.670;2023-06-26T05:40:16;22.10;99.90
19017;DHT22;9641;51.494;6.670;2023-06-26T05:42:45;22.10;1.00
19017;DHT22;9641;51.494;6.670;2023-06-26T05:45:12;22.00;99.90
19017;DHT22;9641;51.494;6.670;2023-06-26T05:47:39;21.90;1.00
19017;DHT22;9641;51.494;6.670;2023-06-26T05:50:07;21.90;1.00
19017;DHT22;9641;51.494;6.670;2023-06-26T05:52:34;21.90;1.00
19017;DHT22;9641;51.494;6.670;2023-06-26T05:55:02;21.90;83.10
19017;DHT22;9641;51.494;6.670;2023-06-26T05:57:29;21.90;1.00
19017;DHT22;9641;51.494;6.670;2023-06-26T05:59:58;21.90;99.90
19017;DHT22;9641;51.494;6.670;2023-06-26T06:02:25;22.00;99.90
19017;DHT22;9641;51.494;6.670;2023-06-26T06:04:52;22.00;1.00
19017;DHT22;9641;51.494;6.670;2023-06-26T06:07:19;22.00;1.00
19017;DHT22;9641;51.494;6.670;2023-06-26T06:09:47;21.90;99.90
19017;DHT22;9641;51.494;6.670;2023-06-26T06:12:14;21.80;1.00
19017;DHT22;9641;51.494;6.670;2023-06-26T06:14:41;21.80;1.00
19017;DHT22;9641;51.494;6.670;2023-06-26T06:17:09;21.70;1.00
19017;DHT22;9641;51.494;6.670;2023-06-26T06:19:35;21.60;1.00
19017;DHT22;9641;51.494;6.670;2023-06-26T06:22:03;21.60;99.90
19017;DHT22;9641;51.494;6.670;2023-06-26T06:24:29;21.70;1.00
19017;DHT22;9641;51.494;6.670;2023-06-26T06:26:56;21.90;1.00
19017;DHT22;9641;51.494;6.670;2023-06-26T06:29:23;22.00;1.00
19017;DHT22;9641;51.494;6.670;2023-06-26T06:31:50;22.10;99.90
19017;DHT22;9641;51.494;6.670;2023-06-26T06:34:18;22.10;1.00
19017;DHT22;9641;51.494;6.670;2023-06-26T06:36:46;22.40;1.80
19017;DHT22;9641;51.494;6.670;2023-06-26T06:39:13;22.40;1.00
19017;DHT22;9641;51.494;6.670;2023-06-26T06:41:40;22.50;1.00
19017;DHT22;9641;51.494;6.670;2023-06-26T06:44:06;22.40;99.90
19017;DHT22;9641;51.494;6.670;2023-06-26T06:46:33;22.40;99.90
19017;DHT22;9641;51.494;6.670;2023-06-26T06:49:00;22.40;1.00
19017;DHT22;9641;51.494;6.670;2023-06-26T06:51:30;22.40;1.00
19017;DHT22;9641;51.494;6.670;2023-06-26T06:53:56;22.40;76.50
19017;DHT22;9641;51.494;6.670;2023-06-26T06:56:23;22.40;1.00
19017;DHT22;9641;51.494;6.670;2023-06-26T06:58:50;22.30;99.90
19017;DHT22;9641;51.494;6.670;2023-06-26T07:01:17;22.20;1.00
19017;DHT22;9641;51.494;6.670;2023-06-26T07:03:44;22.00;99.90
19017;DHT22;9641;51.494;6.670;2023-06-26T07:06:11;22.00;99.90
19017;DHT22;9641;51.494;6.670;2023-06-26T07:08:39;21.90;1.00
19017;DHT22;9641;51.494;6.670;2023-06-26T07:11:06;22.00;1.00
19017;DHT22;9641;51.494;6.670;2023-06-26T07:13:32;22.00;1.00
19017;DHT22;9641;51.494;6.670;2023-06-26T07:15:59;22.20;1.00
19017;DHT22;9641;51.494;6.670;2023-06-26T07:18:28;22.10;1.00
19017;DHT22;9641;51.494;6.670;2023-06-26T07:20:55;22.20;99.90
19017;DHT22;9641;51.494;6.670;2023-06-26T07:23:24;22.30;1.00
19017;DHT22;9641;51.494;6.670;2023-06-26T07:25:52;22.40;99.90
19017;DHT22;9641;51.494;6.670;2023-06-26T07:28:19;22.60;1.00
19017;DHT22;9641;51.494;6.670;2023-06-26T07:30:46;22.80;99.90
19017;DHT22;9641;51.494;6.670;2023-06-26T07:33:13;23.00;99.90
19017;DHT22;9641;51.494;6.670;2023-06-26T07:35:40;23.00;1.00
19017;DHT22;9641;51.494;6.670;2023-06-26T07:38:07;23.00;99.90
19017;DHT22;9641;51.494;6.670;2023-06-26T07:40:33;22.90;1.00
19017;DHT22;9641;51.494;6.670;2023-06-26T07:43:02;22.90;1.00
19017;DHT22;9641;51.494;6.670;2023-06-26T07:45:28;22.90;1.00
19017;DHT22;9641;51.494;6.670;2023-06-26T07:47:55;22.90;99.90
19017;DHT22;9641;51.494;6.670;2023-06-26T07:50:22;23.00;1.00
19017;DHT22;9641;51.494;6.670;2023-06-26T07:52:49;23.00;1.00
19017;DHT22;9641;51.494;6.670;2023-06-26T07:55:17;23.10;99.90
19017;DHT22;9641;51.494;6.670;2023-06-26T07:57:44;23.20;99.90
19017;DHT22;9641;51.494;6.670;2023-06-26T08:00:14;23.30;99.90
19017;DHT22;9641;51.494;6.670;2023-06-26T08:02:41;23.30;1.00
19017;DHT22;9641;51.494;6.670;2023-06-26T08:05:07;23.40;1.00
19017;DHT22;9641;51.494;6.670;2023-06-26T08:07:34;23.50;99.90
19017;DHT22;9641;51.494;6.670;2023-06-26T08:10:01;23.40;1.00
19017;DHT22;9641;51.494;6.670;2023-06-26T08:12:28;23.40;1.00
19017;DHT22;9641;51.494;6.670;2023-06-26T08:14:55;23.40;1.00
19017;DHT22;9641;51.494;6.670;2023-06-26T08:17:23;23.50;1.00
19017;DHT22;9641;51.494;6.670;2023-06-26T08:19:50;23.50;1.00
19017;DHT22;9641;51.494;6.670;2023-06-26T08:22:16;23.40;1.00
19017;DHT22;9641;51.494;6.670;2023-06-26T08:24:43;23.50;1.00
19017;DHT22;9641;51.494;6.670;2023-06-26T08:27:22;23.40;1.00
19017;DHT22;9641;51.494;6.670;2023-06-26T08:29:55;23.50;1.00
19017;DHT22;9641;51.494;6.670;2023-06-26T08:32:23;23.50;99.90
19017;DHT22;9641;51.494;6.670;2023-06-26T08:34:50;23.50;1.00
19017;DHT22;9641;51.494;6.670;2023-06-26T08:37:19;23.40;99.90
19017;DHT22;9641;51.494;6.670;2023-06-26T08:39:47;23.20;99.90
19017;DHT22;9641;51.494;6.670;2023-06-26T08:42:14;23.10;99.90
19017;DHT22;9641;51.494;6.670;2023-06-26T08:44:41;23.20;99.90
19017;DHT22;9641;51.494;6.670;2023-06-26T08:47:36;23.30;99.90
19017;DHT22;9641;51.494;6.670;2023-06-26T08:50:07;23.30;1.00
19017;DHT22;9641;51.494;6.670;2023-06-26T08:52:39;23.40;99.90
19017;DHT22;9641;51.494;6.670;2023-06-26T08:55:10;23.30;1.00
19017;DHT22;9641;51.494;6.670;2023-06-26T08:57:37;23.30;1.00
19017;DHT22;9641;51.494;6.670;2023-06-26T09:00:05;23.50;1.00
19017;DHT22;9641;51.494;6.670;2023-06-26T09:02:37;23.60;1.00
19017;DHT22;9641;51.494;6.670;2023-06-26T09:05:05;23.60;1.00
19017;DHT22;9641;51.494;6.670;2023-06-26T09:07:32;23.40;1.00
19017;DHT22;9641;51.494;6.670;2023-06-26T09:09:59;23.40;99.90
19017;DHT22;9641;51.494;6.670;2023-06-26T09:12:26;23.50;1.00
19017;DHT22;9641;51.494;6.670;2023-06-26T09:14:54;23.50;1.00
19017;DHT22;9641;51.494;6.670;2023-06-26T09:17:24;23.60;1.00
19017;DHT22;9641;51.494;6.670;2023-06-26T09:19:53;23.80;99.90
19017;DHT22;9641;51.494;6.670;2023-06-26T09:22:20;23.90;99.90
19017;DHT22;9641;51.494;6.670;2023-06-26T09:24:48;24.00;99.90
19017;DHT22;9641;51.494;6.670;2023-06-26T09:27:15;24.20;99.90
19017;DHT22;9641;51.494;6.670;2023-06-26T09:29:45;24.30;99.90
19017;DHT22;9641;51.494;6.670;2023-06-26T09:32:13;24.30;99.90
19017;DHT22;9641;51.494;6.670;2023-06-26T09:34:42;24.00;99.90
19017;DHT22;9641;51.494;6.670;2023-06-26T09:37:13;24.00;99.90
19017;DHT22;9641;51.494;6.670;2023-06-26T09:39:40;23.80;5.80
19017;DHT22;9641;51.494;6.670;2023-06-26T09:42:07;23.50;62.80
19017;DHT22;9641;51.494;6.670;2023-06-26T09:44:35;23.50;99.90
19017;DHT22;9641;51.494;6.670;2023-06-26T09:47:02;23.60;99.90
19017;DHT22;9641;51.494;6.670;2023-06-26T09:49:29;23.50;74.50
19017;DHT22;9641;51.494;6.670;2023-06-26T09:52:00;23.30;28.10
19017;DHT22;9641;51.494;6.670;2023-06-26T09:54:29;23.20;99.90
19017;DHT22;9641;51.494;6.670;2023-06-26T09:57:07;23.30;99.90
19017;DHT22;9641;51.494;6.670;2023-06-26T09:59:34;23.60;99.90
19017;DHT22;9641;51.494;6.670;2023-06-26T10:02:01;23.80;1.00
19017;DHT22;9641;51.494;6.670;2023-06-26T10:04:28;23.80;1.00
19017;DHT22;9641;51.494;6.670;2023-06-26T10:06:56;23.80;1.00
19017;DHT22;9641;51.494;6.670;2023-06-26T10:09:24;23.70;1.00
19017;DHT22;9641;51.494;6.670;2023-06-26T10:11:56;23.80;1.00
19017;DHT22;9641;51.494;6.670;2023-06-26T10:14:26;24.00;1.00
19017;DHT22;9641;51.494;6.670;2023-06-26T10:16:57;24.30;1.00
19017;DHT22;9641;51.494;6.670;2023-06-26T10:19:25;24.40;1.00
19017;DHT22;9641;51.494;6.670;2023-06-26T10:21:54;24.40;1.00
19017;DHT22;9641;51.494;6.670;2023-06-26T10:24:23;24.10;1.00
19017;DHT22;9641;51.494;6.670;2023-06-26T10:26:55;23.90;1.00
19017;DHT22;9641;51.494;6.670;2023-06-26T10:29:24;23.80;1.00
19017;DHT22;9641;51.494;6.670;2023-06-26T10:31:56;23.70;1.00
19017;DHT22;9641;51.494;6.670;2023-06-26T10:34:23;23.60;1.00
19017;DHT22;9641;51.494;6.670;2023-06-26T10:36:58;23.70;1.00
19017;DHT22;9641;51.494;6.670;2023-06-26T10:39:26;23.60;1.00
19017;DHT22;9641;51.494;6.670;2023-06-26T10:41:55;23.60;1.00
19017;DHT22;9641;51.494;6.670;2023-06-26T10:44:40;23.60;1.00
19017;DHT22;9641;51.494;6.670;2023-06-26T10:47:07;23.80;1.00
19017;DHT22;9641;51.494;6.670;2023-06-26T10:49:36;24.00;1.00
19017;DHT22;9641;51.494;6.670;2023-06-26T10:52:05;24.20;1.00
19017;DHT22;9641;51.494;6.670;2023-06-26T10:54:32;24.30;1.00
19017;DHT22;9641;51.494;6.670;2023-06-26T10:57:02;24.40;1.00
19017;DHT22;9641;51.494;6.670;2023-06-26T10:59:30;24.40;1.00
19017;DHT22;9641;51.494;6.670;2023-06-26T11:01:58;24.40;99.90
19017;DHT22;9641;51.494;6.670;2023-06-26T11:04:38;24.40;99.90
19017;DHT22;9641;51.494;6.670;2023-06-26T11:07:16;24.10;99.90
19017;DHT22;9641;51.494;6.670;2023-06-26T11:09:55;24.20;1.00
19017;DHT22;9641;51.494;6.670;2023-06-26T11:12:38;24.00;99.90
19017;DHT22;9641;51.494;6.670;2023-06-26T11:15:08;23.80;99.90
19017;DHT22;9641;51.494;6.670;2023-06-26T11:17:35;23.90;99.90
19017;DHT22;9641;51.494;6.670;2023-06-26T11:20:04;24.40;99.90
19017;DHT22;9641;51.494;6.670;2023-06-26T11:22:35;24.70;99.90
19017;DHT22;9641;51.494;6.670;2023-06-26T11:25:02;25.10;99.90
19017;DHT22;9641;51.494;6.670;2023-06-26T11:27:32;25.20;99.90
19017;DHT22;9641;51.494;6.670;2023-06-26T11:30:01;25.20;99.90
19017;DHT22;9641;51.494;6.670;2023-06-26T11:32:27;25.40;99.90
19017;DHT22;9641;51.494;6.670;2023-06-26T11:34:55;25.50;99.90
19017;DHT22;9641;51.494;6.670;2023-06-26T11:37:22;25.60;99.90
19017;DHT22;9641;51.494;6.670;2023-06-26T11:39:49;25.20;99.90
19017;DHT22;9641;51.494;6.670;2023-06-26T11:42:16;24.80;99.90
19017;DHT22;9641;51.494;6.670;2023-06-26T11:44:43;24.60;99.90
19017;DHT22;9641;51.494;6.670;2023-06-26T11:47:14;24.50;99.90
19017;DHT22;9641;51.494;6.670;2023-06-26T11:49:42;24.70;99.90
19017;DHT22;9641;51.494;6.670;2023-06-26T11:52:09;25.00;99.90
19017;DHT22;9641;51.494;6.670;2023-06-26T11:54:36;25.40;99.90
19017;DHT22;9641;51.494;6.670;2023-06-26T11:57:04;25.60;99.90
19017;DHT22;9641;51.494;6.670;2023-06-26T11:59:35;25.70;99.90
19017;DHT22;9641;51.494;6.670;2023-06-26T12:02:05;25.80;99.90
19017;DHT22;9641;51.494;6.670;2023-06-26T12:04:34;25.60;99.90
19017;DHT22;9641;51.494;6.670;2023-06-26T12:07:03;25.20;99.90
19017;DHT22;9641;51.494;6.670;2023-06-26T12:09:33;25.10;99.90
19017;DHT22;9641;51.494;6.670;2023-06-26T12:12:01;25.00;99.90
19017;DHT22;9641;51.494;6.670;2023-06-26T12:14:28;25.00;99.90
19017;DHT22;9641;51.494;6.670;2023-06-26T12:16:55;25.30;99.90
19017;DHT22;9641;51.494;6.670;2023-06-26T12:19:25;25.80;99.90
19017;DHT22;9641;51.494;6.670;2023-06-26T12:21:54;26.10;99.90
19017;DHT22;9641;51.494;6.670;2023-06-26T12:24:23;25.90;99.90
19017;DHT22;9641;51.494;6.670;2023-06-26T12:26:52;25.90;99.90
19017;DHT22;9641;51.494;6.670;2023-06-26T12:29:29;25.90;99.90
19017;DHT22;9641;51.494;6.670;2023-06-26T12:31:56;26.00;99.90
19017;DHT22;9641;51.494;6.670;2023-06-26T12:34:31;26.10;98.70
19017;DHT22;9641;51.494;6.670;2023-06-26T12:37:02;25.80;99.90
19017;DHT22;9641;51.494;6.670;2023-06-26T12:39:45;25.90;99.90
19017;DHT22;9641;51.494;6.670;2023-06-26T12:42:13;26.20;92.20
19017;DHT22;9641;51.494;6.670;2023-06-26T12:44:41;26.30;79.50
19017;DHT22;9641;51.494;6.670;2023-06-26T12:47:07;26.60;99.90
19017;DHT22;9641;51.494;6.670;2023-06-26T12:49:36;26.80;92.40
19017;DHT22;9641;51.494;6.670;2023-06-26T12:52:06;26.40;73.90
19017;DHT22;9641;51.494;6.670;2023-06-26T12:54:34;26.20;81.40
19017;DHT22;9641;51.494;6.670;2023-06-26T12:57:01;26.10;67.60
19017;DHT22;9641;51.494;6.670;2023-06-26T12:59:29;26.10;49.50
19017;DHT22;9641;51.494;6.670;2023-06-26T13:01:56;26.40;44.90
19017;DHT22;9641;51.494;6.670;2023-06-26T13:04:23;26.70;49.50
19017;DHT22;9641;51.494;6.670;2023-06-26T13:06:50;26.50;38.00
19017;DHT22;9641;51.494;6.670;2023-06-26T13:09:18;26.00;24.50
19017;DHT22;9641;51.494;6.670;2023-06-26T13:11:45;25.60;30.00
19017;DHT22;9641;51.494;6.670;2023-06-26T13:14:12;25.60;23.80
19017;DHT22;9641;51.494;6.670;2023-06-26T13:16:40;26.20;34.80
19017;DHT22;9641;51.494;6.670;2023-06-26T13:19:07;26.40;29.00
19017;DHT22;9641;51.494;6.670;2023-06-26T13:21:34;26.10;19.50
19017;DHT22;9641;51.494;6.670;2023-06-26T13:24:03;26.30;11.00
19017;DHT22;9641;51.494;6.670;2023-06-26T13:26:31;26.30;9.70
19017;DHT22;9641;51.494;6.670;2023-06-26T13:28:58;26.70;14.10
19017;DHT22;9641;51.494;6.670;2023-06-26T13:31:25;27.20;4.30
19017;DHT22;9641;51.494;6.670;2023-06-26T13:33:52;27.70;1.30
19017;DHT22;9641;51.494;6.670;2023-06-26T13:36:19;28.30;1.70
19017;DHT22;9641;51.494;6.670;2023-06-26T13:38:47;28.30;1.00
19017;DHT22;9641;51.494;6.670;2023-06-26T13:41:21;28.30;1.00
19017;DHT22;9641;51.494;6.670;2023-06-26T13:43:49;28.30;1.00
19017;DHT22;9641;51.494;6.670;2023-06-26T13:46:16;28.30;1.00
19017;DHT22;9641;51.494;6.670;2023-06-26T13:48:43;28.60;1.00
19017;DHT22;9641;51.494;6.670;2023-06-26T13:51:10;28.90;1.00
19017;DHT22;9641;51.494;6.670;2023-06-26T13:53:37;29.00;1.00
19017;DHT22;9641;51.494;6.670;2023-06-26T13:56:04;29.00;1.00
19017;DHT22;9641;51.494;6.670;2023-06-26T13:58:31;28.90;1.00
19017;DHT22;9641;51.494;6.670;2023-06-26T14:01:00;28.80;1.00
19017;DHT22;9641;51.494;6.670;2023-06-26T14:03:27;28.70;1.00
19017;DHT22;9641;51.494;6.670;2023-06-26T14:05:54;28.70;1.00
19017;DHT22;9641;51.494;6.670;2023-06-26T14:08:21;28.80;1.00
19017;DHT22;9641;51.494;6.670;2023-06-26T14:10:48;28.90;1.00
19017;DHT22;9641;51.494;6.670;2023-06-26T14:13:15;29.50;1.00
19017;DHT22;9641;51.494;6.670;2023-06-26T14:15:42;29.80;1.00
19017;DHT22;9641;51.494;6.670;2023-06-26T14:18:10;29.20;1.00
19017;DHT22;9641;51.494;6.670;2023-06-26T14:20:37;29.00;1.00
19017;DHT22;9641;51.494;6.670;2023-06-26T14:23:05;28.50;1.00
19017;DHT22;9641;51.494;6.670;2023-06-26T14:25:32;28.00;1.00
19017;DHT22;9641;51.494;6.670;2023-06-26T14:27:59;27.70;1.00
19017;DHT22;9641;51.494;6.670;2023-06-26T14:30:25;27.30;1.00
19017;DHT22;9641;51.494;6.670;2023-06-26T14:32:52;27.10;1.00
19017;DHT22;9641;51.494;6.670;2023-06-26T14:35:20;27.10;1.00
19017;DHT22;9641;51.494;6.670;2023-06-26T14:37:48;27.10;1.00
19017;DHT22;9641;51.494;6.670;2023-06-26T14:40:15;27.10;1.00
19017;DHT22;9641;51.494;6.670;2023-06-26T14:42:42;27.10;1.00
19017;DHT22;9641;51.494;6.670;2023-06-26T14:45:11;26.70;1.00
19017;DHT22;9641;51.494;6.670;2023-06-26T14:47:38;26.10;1.00
19017;DHT22;9641;51.494;6.670;2023-06-26T14:50:05;25.60;1.00
19017;DHT22;9641;51.494;6.670;2023-06-26T14:52:34;25.30;1.00
19017;DHT22;9641;51.494;6.670;2023-06-26T14:55:01;25.30;1.00
19017;DHT22;9641;51.494;6.670;2023-06-26T14:57:28;26.20;1.00
19017;DHT22;9641;51.494;6.670;2023-06-26T14:59:55;27.20;1.00
19017;DHT22;9641;51.494;6.670;2023-06-26T15:02:23;27.70;1.00
19017;DHT22;9641;51.494;6.670;2023-06-26T15:04:50;28.30;1.00
19017;DHT22;9641;51.494;6.670;2023-06-26T15:07:17;28.20;1.00
19017;DHT22;9641;51.494;6.670;2023-06-26T15:09:46;28.10;1.00
19017;DHT22;9641;51.494;6.670;2023-06-26T15:12:15;28.40;1.00
19017;DHT22;9641;51.494;6.670;2023-06-26T15:14:42;28.60;1.00
19017;DHT22;9641;51.494;6.670;2023-06-26T15:17:10;28.60;1.00
19017;DHT22;9641;51.494;6.670;2023-06-26T15:19:38;28.40;1.00
19017;DHT22;9641;51.494;6.670;2023-06-26T15:22:05;28.30;1.00
19017;DHT22;9641;51.494;6.670;2023-06-26T15:24:33;28.60;1.00
19017;DHT22;9641;51.494;6.670;2023-06-26T15:27:01;28.80;1.00
19017;DHT22;9641;51.494;6.670;2023-06-26T15:29:29;29.00;1.00
19017;DHT22;9641;51.494;6.670;2023-06-26T15:31:57;29.00;1.00
19017;DHT22;9641;51.494;6.670;2023-06-26T15:34:25;28.50;1.00
19017;DHT22;9641;51.494;6.670;2023-06-26T15:36:53;27.60;1.00
19017;DHT22;9641;51.494;6.670;2023-06-26T15:39:20;26.80;1.00
19017;DHT22;9641;51.494;6.670;2023-06-26T15:41:47;26.20;1.00
19017;DHT22;9641;51.494;6.670;2023-06-26T15:44:16;25.70;1.00
19017;DHT22;9641;51.494;6.670;2023-06-26T15:46:43;25.30;1.00
19017;DHT22;9641;51.494;6.670;2023-06-26T15:49:11;24.90;1.00
19017;DHT22;9641;51.494;6.670;2023-06-26T15:51:38;24.60;1.00
19017;DHT22;9641;51.494;6.670;2023-06-26T15:54:07;24.40;1.00
19017;DHT22;9641;51.494;6.670;2023-06-26T15:56:34;24.00;1.00
19017;DHT22;9641;51.494;6.670;2023-06-26T15:59:01;24.00;1.00
19017;DHT22;9641;51.494;6.670;2023-06-26T16:01:30;23.90;1.00